sensor_id;sensor_type;location;lat;lon;timestamp;P1;durP1;ratioP1;P2;durP2;ratioP2
9306;SDS011;4691;47.612;7.610;2023-09-19T00:01:58;3.33;;;0.98;;
9306;SDS011;4691;47.612;7.610;2023-09-19T00:04:24;2.88;;;1.10;;
9306;SDS011;4691;47.612;7.610;2023-09-19T00:06:54;2.03;;;0.90;;
9306;SDS011;4691;47.612;7.610;2023-09-19T00:09:19;2.08;;;1.00;;
9306;SDS011;4691;47.612;7.610;2023-09-19T00:11:44;3.33;;;1.13;;
9306;SDS011;4691;47.612;7.610;2023-09-19T00:14:12;2.17;;;1.02;;
9306;SDS011;4691;47.612;7.610;2023-09-19T00:16:38;2.75;;;1.00;;
9306;SDS011;4691;47.612;7.610;2023-09-19T00:19:06;4.20;;;0.93;;
9306;SDS011;4691;47.612;7.610;2023-09-19T00:21:34;1.65;;;0.90;;
9306;SDS011;4691;47.612;7.610;2023-09-19T00:24:00;1.25;;;0.73;;
9306;SDS011;4691;47.612;7.610;2023-09-19T00:26:26;1.77;;;0.77;;
9306;SDS011;4691;47.612;7.610;2023-09-19T00:28:55;2.38;;;0.65;;
9306;SDS011;4691;47.612;7.610;2023-09-19T00:31:22;2.30;;;0.80;;
9306;SDS011;4691;47.612;7.610;2023-09-19T00:33:50;3.15;;;0.90;;
9306;SDS011;4691;47.612;7.610;2023-09-19T00:36:16;1.05;;;0.70;;
9306;SDS011;4691;47.612;7.610;2023-09-19T00:38:41;1.65;;;0.80;;
9306;SDS011;4691;47.612;7.610;2023-09-19T00:41:09;2.63;;;0.80;;
9306;SDS011;4691;47.612;7.610;2023-09-19T00:43:34;0.77;;;0.60;;
9306;SDS011;4691;47.612;7.610;2023-09-19T00:46:00;3.67;;;0.88;;
9306;SDS011;4691;47.612;7.610;2023-09-19T00:48:28;1.10;;;0.85;;
9306;SDS011;4691;47.612;7.610;2023-09-19T00:50:54;1.27;;;0.63;;
9306;SDS011;4691;47.612;7.610;2023-09-19T00:53:22;1.48;;;0.88;;
9306;SDS011;4691;47.612;7.610;2023-09-19T00:55:50;1.95;;;0.90;;
9306;SDS011;4691;47.612;7.610;2023-09-19T00:58:16;0.80;;;0.70;;
9306;SDS011;4691;47.612;7.610;2023-09-19T01:00:43;0.90;;;0.75;;
9306;SDS011;4691;47.612;7.610;2023-09-19T01:03:09;3.25;;;1.00;;
9306;SDS011;4691;47.612;7.610;2023-09-19T01:05:35;1.55;;;0.95;;
9306;SDS011;4691;47.612;7.610;2023-09-19T01:08:01;2.17;;;0.70;;
9306;SDS011;4691;47.612;7.610;2023-09-19T01:10:26;1.85;;;0.80;;
9306;SDS011;4691;47.612;7.610;2023-09-19T01:15:51;4.75;;;0.98;;
9306;SDS011;4691;47.612;7.610;2023-09-19T01:22:00;1.52;;;0.80;;
9306;SDS011;4691;47.612;7.610;2023-09-19T01:24:34;1.98;;;0.98;;
9306;SDS011;4691;47.612;7.610;2023-09-19T01:30:06;3.70;;;1.58;;
9306;SDS011;4691;47.612;7.610;2023-09-19T01:32:33;1.52;;;1.00;;
9306;SDS011;4691;47.612;7.610;2023-09-19T01:34:59;3.22;;;0.90;;
9306;SDS011;4691;47.612;7.610;2023-09-19T01:37:30;2.60;;;0.82;;
9306;SDS011;4691;47.612;7.610;2023-09-19T01:39:57;1.52;;;1.05;;
9306;SDS011;4691;47.612;7.610;2023-09-19T01:45:11;1.45;;;1.02;;
9306;SDS011;4691;47.612;7.610;2023-09-19T01:47:46;1.05;;;0.70;;
9306;SDS011;4691;47.612;7.610;2023-09-19T01:53:05;5.13;;;0.90;;
9306;SDS011;4691;47.612;7.610;2023-09-19T01:55:41;1.13;;;0.80;;
9306;SDS011;4691;47.612;7.610;2023-09-19T01:58:16;0.90;;;0.80;;
9306;SDS011;4691;47.612;7.610;2023-09-19T02:00:47;2.00;;;1.10;;
9306;SDS011;4691;47.612;7.610;2023-09-19T02:03:16;2.00;;;1.17;;
9306;SDS011;4691;47.612;7.610;2023-09-19T02:05:48;3.40;;;1.23;;
9306;SDS011;4691;47.612;7.610;2023-09-19T02:08:18;2.33;;;1.00;;
9306;SDS011;4691;47.612;7.610;2023-09-19T02:10:45;2.10;;;1.00;;
9306;SDS011;4691;47.612;7.610;2023-09-19T02:13:17;1.38;;;0.80;;
9306;SDS011;4691;47.612;7.610;2023-09-19T02:15:49;2.13;;;1.10;;
9306;SDS011;4691;47.612;7.610;2023-09-19T02:19:31;1.50;;;0.90;;
9306;SDS011;4691;47.612;7.610;2023-09-19T02:21:57;1.70;;;1.02;;
9306;SDS011;4691;47.612;7.610;2023-09-19T02:24:23;4.18;;;1.10;;
9306;SDS011;4691;47.612;7.610;2023-09-19T02:26:49;2.50;;;0.95;;
9306;SDS011;4691;47.612;7.610;2023-09-19T02:29:14;2.72;;;1.00;;
9306;SDS011;4691;47.612;7.610;2023-09-19T02:31:40;1.23;;;0.95;;
9306;SDS011;4691;47.612;7.610;2023-09-19T02:34:05;3.80;;;1.15;;
9306;SDS011;4691;47.612;7.610;2023-09-19T02:36:31;4.57;;;1.10;;
9306;SDS011;4691;47.612;7.610;2023-09-19T02:38:57;8.85;;;1.40;;
9306;SDS011;4691;47.612;7.610;2023-09-19T02:41:22;2.67;;;1.00;;
9306;SDS011;4691;47.612;7.610;2023-09-19T02:43:48;2.55;;;1.10;;
9306;SDS011;4691;47.612;7.610;2023-09-19T02:46:13;2.08;;;1.10;;
9306;SDS011;4691;47.612;7.610;2023-09-19T02:48:39;3.20;;;0.88;;
9306;SDS011;4691;47.612;7.610;2023-09-19T02:51:04;1.23;;;0.88;;
9306;SDS011;4691;47.612;7.610;2023-09-19T02:53:30;1.85;;;0.98;;
9306;SDS011;4691;47.612;7.610;2023-09-19T02:55:56;2.30;;;0.98;;
9306;SDS011;4691;47.612;7.610;2023-09-19T02:58:22;2.25;;;1.10;;
9306;SDS011;4691;47.612;7.610;2023-09-19T03:00:48;2.30;;;1.20;;
9306;SDS011;4691;47.612;7.610;2023-09-19T03:03:16;4.20;;;1.10;;
9306;SDS011;4691;47.612;7.610;2023-09-19T03:05:42;2.65;;;1.00;;
9306;SDS011;4691;47.612;7.610;2023-09-19T03:10:39;4.75;;;1.23;;
9306;SDS011;4691;47.612;7.610;2023-09-19T03:13:05;2.22;;;1.25;;
9306;SDS011;4691;47.612;7.610;2023-09-19T03:15:30;4.40;;;1.50;;
9306;SDS011;4691;47.612;7.610;2023-09-19T03:17:56;2.35;;;1.17;;
9306;SDS011;4691;47.612;7.610;2023-09-19T03:20:22;2.70;;;1.08;;
9306;SDS011;4691;47.612;7.610;2023-09-19T03:22:48;3.65;;;1.17;;
9306;SDS011;4691;47.612;7.610;2023-09-19T03:25:13;2.70;;;1.20;;
9306;SDS011;4691;47.612;7.610;2023-09-19T03:27:39;3.47;;;1.52;;
9306;SDS011;4691;47.612;7.610;2023-09-19T03:30:05;2.28;;;1.38;;
9306;SDS011;4691;47.612;7.610;2023-09-19T03:32:34;5.25;;;1.13;;
9306;SDS011;4691;47.612;7.610;2023-09-19T03:35:00;2.70;;;1.20;;
9306;SDS011;4691;47.612;7.610;2023-09-19T03:37:26;2.53;;;1.00;;
9306;SDS011;4691;47.612;7.610;2023-09-19T03:39:51;2.15;;;1.20;;
9306;SDS011;4691;47.612;7.610;2023-09-19T03:42:16;1.67;;;1.10;;
9306;SDS011;4691;47.612;7.610;2023-09-19T03:44:42;3.30;;;1.13;;
9306;SDS011;4691;47.612;7.610;2023-09-19T03:47:07;2.00;;;1.08;;
9306;SDS011;4691;47.612;7.610;2023-09-19T03:49:32;5.57;;;1.60;;
9306;SDS011;4691;47.612;7.610;2023-09-19T03:51:59;2.63;;;0.93;;
9306;SDS011;4691;47.612;7.610;2023-09-19T03:54:24;1.98;;;1.40;;
9306;SDS011;4691;47.612;7.610;2023-09-19T03:56:49;1.63;;;1.10;;
9306;SDS011;4691;47.612;7.610;2023-09-19T03:59:15;2.88;;;1.30;;
9306;SDS011;4691;47.612;7.610;2023-09-19T04:01:41;2.13;;;1.10;;
9306;SDS011;4691;47.612;7.610;2023-09-19T04:04:06;1.83;;;1.10;;
9306;SDS011;4691;47.612;7.610;2023-09-19T04:06:34;6.47;;;1.40;;
9306;SDS011;4691;47.612;7.610;2023-09-19T04:09:00;3.10;;;1.48;;
9306;SDS011;4691;47.612;7.610;2023-09-19T04:11:26;3.65;;;1.52;;
9306;SDS011;4691;47.612;7.610;2023-09-19T04:13:51;4.22;;;1.20;;
9306;SDS011;4691;47.612;7.610;2023-09-19T04:16:16;4.50;;;1.30;;
9306;SDS011;4691;47.612;7.610;2023-09-19T04:18:42;2.70;;;1.50;;
9306;SDS011;4691;47.612;7.610;2023-09-19T04:21:08;2.55;;;1.30;;
9306;SDS011;4691;47.612;7.610;2023-09-19T04:23:34;2.92;;;1.30;;
9306;SDS011;4691;47.612;7.610;2023-09-19T04:25:59;2.47;;;1.23;;
9306;SDS011;4691;47.612;7.610;2023-09-19T04:28:25;5.22;;;1.70;;
9306;SDS011;4691;47.612;7.610;2023-09-19T04:30:52;3.03;;;1.30;;
9306;SDS011;4691;47.612;7.610;2023-09-19T04:33:18;4.07;;;1.35;;
9306;SDS011;4691;47.612;7.610;2023-09-19T04:35:43;4.53;;;1.67;;
9306;SDS011;4691;47.612;7.610;2023-09-19T04:38:09;2.97;;;1.45;;
9306;SDS011;4691;47.612;7.610;2023-09-19T04:40:34;3.45;;;1.50;;
9306;SDS011;4691;47.612;7.610;2023-09-19T04:43:00;1.55;;;1.20;;
9306;SDS011;4691;47.612;7.610;2023-09-19T04:45:26;2.90;;;1.23;;
9306;SDS011;4691;47.612;7.610;2023-09-19T04:47:52;5.80;;;1.58;;
9306;SDS011;4691;47.612;7.610;2023-09-19T04:50:18;3.05;;;1.45;;
9306;SDS011;4691;47.612;7.610;2023-09-19T04:52:48;2.95;;;1.58;;
9306;SDS011;4691;47.612;7.610;2023-09-19T04:57:48;2.15;;;1.35;;
9306;SDS011;4691;47.612;7.610;2023-09-19T05:00:18;3.17;;;1.20;;
9306;SDS011;4691;47.612;7.610;2023-09-19T05:02:49;3.53;;;1.40;;
9306;SDS011;4691;47.612;7.610;2023-09-19T05:05:18;4.25;;;1.50;;
9306;SDS011;4691;47.612;7.610;2023-09-19T05:07:44;1.77;;;1.25;;
9306;SDS011;4691;47.612;7.610;2023-09-19T05:10:10;3.92;;;1.73;;
9306;SDS011;4691;47.612;7.610;2023-09-19T05:12:36;2.88;;;1.60;;
9306;SDS011;4691;47.612;7.610;2023-09-19T05:15:02;3.55;;;1.23;;
9306;SDS011;4691;47.612;7.610;2023-09-19T05:17:28;3.97;;;1.50;;
9306;SDS011;4691;47.612;7.610;2023-09-19T05:19:54;3.15;;;1.50;;
9306;SDS011;4691;47.612;7.610;2023-09-19T05:22:20;2.40;;;1.50;;
9306;SDS011;4691;47.612;7.610;2023-09-19T05:24:45;3.35;;;1.30;;
9306;SDS011;4691;47.612;7.610;2023-09-19T05:27:16;2.15;;;1.40;;
9306;SDS011;4691;47.612;7.610;2023-09-19T05:29:42;3.53;;;1.52;;
9306;SDS011;4691;47.612;7.610;2023-09-19T05:32:09;2.53;;;1.10;;
9306;SDS011;4691;47.612;7.610;2023-09-19T05:34:35;3.17;;;1.50;;
9306;SDS011;4691;47.612;7.610;2023-09-19T05:37:01;3.70;;;1.50;;
9306;SDS011;4691;47.612;7.610;2023-09-19T05:39:27;2.00;;;1.40;;
9306;SDS011;4691;47.612;7.610;2023-09-19T05:41:52;3.03;;;2.13;;
9306;SDS011;4691;47.612;7.610;2023-09-19T05:44:17;2.40;;;1.45;;
9306;SDS011;4691;47.612;7.610;2023-09-19T05:46:42;2.03;;;1.23;;
9306;SDS011;4691;47.612;7.610;2023-09-19T05:49:08;2.08;;;1.42;;
9306;SDS011;4691;47.612;7.610;2023-09-19T05:51:33;3.42;;;1.58;;
9306;SDS011;4691;47.612;7.610;2023-09-19T05:53:58;4.30;;;1.30;;
9306;SDS011;4691;47.612;7.610;2023-09-19T05:56:24;3.03;;;1.55;;
9306;SDS011;4691;47.612;7.610;2023-09-19T05:58:49;3.00;;;1.73;;
9306;SDS011;4691;47.612;7.610;2023-09-19T06:01:16;7.47;;;1.88;;
9306;SDS011;4691;47.612;7.610;2023-09-19T06:03:42;5.00;;;1.70;;
9306;SDS011;4691;47.612;7.610;2023-09-19T06:06:07;3.95;;;1.55;;
9306;SDS011;4691;47.612;7.610;2023-09-19T06:08:33;4.28;;;1.70;;
9306;SDS011;4691;47.612;7.610;2023-09-19T06:10:58;3.50;;;1.75;;
9306;SDS011;4691;47.612;7.610;2023-09-19T06:13:24;7.28;;;2.75;;
9306;SDS011;4691;47.612;7.610;2023-09-19T06:15:51;2.63;;;1.70;;
9306;SDS011;4691;47.612;7.610;2023-09-19T06:18:17;2.67;;;1.70;;
9306;SDS011;4691;47.612;7.610;2023-09-19T06:20:46;3.85;;;1.77;;
9306;SDS011;4691;47.612;7.610;2023-09-19T06:23:12;3.17;;;1.63;;
9306;SDS011;4691;47.612;7.610;2023-09-19T06:25:37;6.40;;;1.38;;
9306;SDS011;4691;47.612;7.610;2023-09-19T06:28:04;5.53;;;1.92;;
9306;SDS011;4691;47.612;7.610;2023-09-19T06:30:30;3.72;;;1.60;;
9306;SDS011;4691;47.612;7.610;2023-09-19T06:32:57;2.83;;;1.50;;
9306;SDS011;4691;47.612;7.610;2023-09-19T06:35:23;3.75;;;1.75;;
9306;SDS011;4691;47.612;7.610;2023-09-19T06:37:51;3.05;;;1.45;;
9306;SDS011;4691;47.612;7.610;2023-09-19T06:40:17;3.50;;;1.58;;
9306;SDS011;4691;47.612;7.610;2023-09-19T06:42:43;5.13;;;1.63;;
9306;SDS011;4691;47.612;7.610;2023-09-19T06:45:13;6.43;;;1.73;;
9306;SDS011;4691;47.612;7.610;2023-09-19T06:50:08;3.45;;;1.67;;
9306;SDS011;4691;47.612;7.610;2023-09-19T06:52:38;1.98;;;1.50;;
9306;SDS011;4691;47.612;7.610;2023-09-19T06:55:04;6.25;;;1.80;;
9306;SDS011;4691;47.612;7.610;2023-09-19T06:57:31;2.65;;;1.55;;
9306;SDS011;4691;47.612;7.610;2023-09-19T06:59:56;6.30;;;2.15;;
9306;SDS011;4691;47.612;7.610;2023-09-19T07:02:22;4.03;;;1.80;;
9306;SDS011;4691;47.612;7.610;2023-09-19T07:04:47;4.00;;;1.60;;
9306;SDS011;4691;47.612;7.610;2023-09-19T07:07:12;3.85;;;1.40;;
9306;SDS011;4691;47.612;7.610;2023-09-19T07:09:38;2.78;;;1.60;;
9306;SDS011;4691;47.612;7.610;2023-09-19T07:12:04;6.07;;;3.20;;
9306;SDS011;4691;47.612;7.610;2023-09-19T07:14:30;3.17;;;1.75;;
9306;SDS011;4691;47.612;7.610;2023-09-19T07:16:55;2.17;;;1.65;;
9306;SDS011;4691;47.612;7.610;2023-09-19T07:21:50;6.68;;;1.75;;
9306;SDS011;4691;47.612;7.610;2023-09-19T07:24:15;4.57;;;1.67;;
9306;SDS011;4691;47.612;7.610;2023-09-19T07:26:41;2.45;;;1.50;;
9306;SDS011;4691;47.612;7.610;2023-09-19T07:29:06;3.13;;;1.40;;
9306;SDS011;4691;47.612;7.610;2023-09-19T07:31:31;4.38;;;1.55;;
9306;SDS011;4691;47.612;7.610;2023-09-19T07:33:57;3.65;;;1.50;;
9306;SDS011;4691;47.612;7.610;2023-09-19T07:36:22;3.05;;;1.52;;
9306;SDS011;4691;47.612;7.610;2023-09-19T07:38:49;6.10;;;1.58;;
9306;SDS011;4691;47.612;7.610;2023-09-19T07:41:14;4.00;;;1.75;;
9306;SDS011;4691;47.612;7.610;2023-09-19T07:43:40;3.80;;;1.77;;
9306;SDS011;4691;47.612;7.610;2023-09-19T07:46:05;3.70;;;1.40;;
9306;SDS011;4691;47.612;7.610;2023-09-19T07:51:04;3.60;;;1.80;;
9306;SDS011;4691;47.612;7.610;2023-09-19T07:53:31;4.78;;;1.60;;
9306;SDS011;4691;47.612;7.610;2023-09-19T07:56:06;5.07;;;1.53;;
9306;SDS011;4691;47.612;7.610;2023-09-19T07:58:33;3.83;;;1.63;;
9306;SDS011;4691;47.612;7.610;2023-09-19T08:01:02;2.00;;;1.40;;
9306;SDS011;4691;47.612;7.610;2023-09-19T08:03:29;3.03;;;1.38;;
9306;SDS011;4691;47.612;7.610;2023-09-19T08:05:55;2.67;;;1.50;;
9306;SDS011;4691;47.612;7.610;2023-09-19T08:08:22;3.70;;;1.60;;
9306;SDS011;4691;47.612;7.610;2023-09-19T08:10:52;2.53;;;1.50;;
9306;SDS011;4691;47.612;7.610;2023-09-19T08:13:21;4.95;;;1.45;;
9306;SDS011;4691;47.612;7.610;2023-09-19T08:15:48;5.32;;;2.00;;
9306;SDS011;4691;47.612;7.610;2023-09-19T08:18:13;9.57;;;1.73;;
9306;SDS011;4691;47.612;7.610;2023-09-19T08:20:39;3.28;;;1.90;;
9306;SDS011;4691;47.612;7.610;2023-09-19T08:23:07;3.03;;;1.90;;
9306;SDS011;4691;47.612;7.610;2023-09-19T08:25:33;5.15;;;1.67;;
9306;SDS011;4691;47.612;7.610;2023-09-19T08:27:59;3.97;;;1.85;;
9306;SDS011;4691;47.612;7.610;2023-09-19T08:30:28;5.72;;;1.80;;
9306;SDS011;4691;47.612;7.610;2023-09-19T08:32:58;4.25;;;1.70;;
9306;SDS011;4691;47.612;7.610;2023-09-19T08:35:24;5.82;;;1.90;;
9306;SDS011;4691;47.612;7.610;2023-09-19T08:37:49;5.22;;;1.98;;
9306;SDS011;4691;47.612;7.610;2023-09-19T08:40:15;6.72;;;2.92;;
9306;SDS011;4691;47.612;7.610;2023-09-19T08:42:48;3.45;;;1.80;;
9306;SDS011;4691;47.612;7.610;2023-09-19T08:45:18;7.53;;;2.10;;
9306;SDS011;4691;47.612;7.610;2023-09-19T08:47:46;5.25;;;2.10;;
9306;SDS011;4691;47.612;7.610;2023-09-19T08:50:19;3.45;;;2.05;;
9306;SDS011;4691;47.612;7.610;2023-09-19T08:52:53;4.97;;;1.90;;
9306;SDS011;4691;47.612;7.610;2023-09-19T08:55:21;2.92;;;1.48;;
9306;SDS011;4691;47.612;7.610;2023-09-19T08:57:51;4.38;;;1.80;;
9306;SDS011;4691;47.612;7.610;2023-09-19T09:00:23;3.92;;;1.77;;
9306;SDS011;4691;47.612;7.610;2023-09-19T09:02:52;4.10;;;1.63;;
9306;SDS011;4691;47.612;7.610;2023-09-19T09:05:19;4.60;;;1.90;;
9306;SDS011;4691;47.612;7.610;2023-09-19T09:07:47;8.15;;;1.70;;
9306;SDS011;4691;47.612;7.610;2023-09-19T09:10:16;3.72;;;1.95;;
9306;SDS011;4691;47.612;7.610;2023-09-19T09:12:43;7.70;;;2.45;;
9306;SDS011;4691;47.612;7.610;2023-09-19T09:15:09;8.18;;;1.98;;
9306;SDS011;4691;47.612;7.610;2023-09-19T09:17:36;2.22;;;1.73;;
9306;SDS011;4691;47.612;7.610;2023-09-19T09:20:02;5.82;;;2.00;;
9306;SDS011;4691;47.612;7.610;2023-09-19T09:22:30;5.28;;;2.00;;
9306;SDS011;4691;47.612;7.610;2023-09-19T09:24:57;2.83;;;1.77;;
9306;SDS011;4691;47.612;7.610;2023-09-19T09:27:30;5.38;;;2.35;;
9306;SDS011;4691;47.612;7.610;2023-09-19T09:29:56;5.40;;;1.90;;
9306;SDS011;4691;47.612;7.610;2023-09-19T09:32:29;4.35;;;1.70;;
9306;SDS011;4691;47.612;7.610;2023-09-19T09:35:00;2.95;;;1.55;;
9306;SDS011;4691;47.612;7.610;2023-09-19T09:37:26;4.05;;;1.63;;
9306;SDS011;4691;47.612;7.610;2023-09-19T09:40:00;12.27;;;2.05;;
9306;SDS011;4691;47.612;7.610;2023-09-19T09:42:56;5.57;;;2.13;;
9306;SDS011;4691;47.612;7.610;2023-09-19T09:45:24;2.88;;;1.80;;
9306;SDS011;4691;47.612;7.610;2023-09-19T09:47:59;5.65;;;1.80;;
9306;SDS011;4691;47.612;7.610;2023-09-19T09:50:32;2.60;;;1.55;;
9306;SDS011;4691;47.612;7.610;2023-09-19T09:56:03;7.63;;;1.70;;
9306;SDS011;4691;47.612;7.610;2023-09-19T09:58:38;4.15;;;1.65;;
9306;SDS011;4691;47.612;7.610;2023-09-19T10:01:17;3.33;;;1.77;;
9306;SDS011;4691;47.612;7.610;2023-09-19T10:03:43;3.60;;;1.45;;
9306;SDS011;4691;47.612;7.610;2023-09-19T10:06:13;5.15;;;1.77;;
9306;SDS011;4691;47.612;7.610;2023-09-19T10:08:57;3.63;;;1.75;;
9306;SDS011;4691;47.612;7.610;2023-09-19T10:11:40;3.63;;;1.67;;
9306;SDS011;4691;47.612;7.610;2023-09-19T10:14:11;2.65;;;1.52;;
9306;SDS011;4691;47.612;7.610;2023-09-19T10:16:43;2.47;;;1.40;;
9306;SDS011;4691;47.612;7.610;2023-09-19T10:19:11;4.75;;;1.88;;
9306;SDS011;4691;47.612;7.610;2023-09-19T10:21:47;4.10;;;1.55;;
9306;SDS011;4691;47.612;7.610;2023-09-19T10:24:14;2.80;;;1.40;;
9306;SDS011;4691;47.612;7.610;2023-09-19T10:26:41;2.42;;;1.73;;
9306;SDS011;4691;47.612;7.610;2023-09-19T10:29:08;3.47;;;1.48;;
9306;SDS011;4691;47.612;7.610;2023-09-19T10:31:35;5.93;;;1.40;;
9306;SDS011;4691;47.612;7.610;2023-09-19T10:34:05;2.85;;;1.42;;
9306;SDS011;4691;47.612;7.610;2023-09-19T10:36:32;3.08;;;1.38;;
9306;SDS011;4691;47.612;7.610;2023-09-19T10:39:00;2.20;;;1.37;;
9306;SDS011;4691;47.612;7.610;2023-09-19T10:41:31;3.90;;;1.42;;
9306;SDS011;4691;47.612;7.610;2023-09-19T10:44:02;2.45;;;1.67;;
9306;SDS011;4691;47.612;7.610;2023-09-19T10:46:30;1.67;;;1.40;;
9306;SDS011;4691;47.612;7.610;2023-09-19T10:48:58;4.20;;;1.60;;
9306;SDS011;4691;47.612;7.610;2023-09-19T10:51:25;3.23;;;1.53;;
9306;SDS011;4691;47.612;7.610;2023-09-19T10:54:11;2.38;;;1.38;;
9306;SDS011;4691;47.612;7.610;2023-09-19T10:56:46;2.58;;;1.40;;
9306;SDS011;4691;47.612;7.610;2023-09-19T10:59:15;3.08;;;1.40;;
9306;SDS011;4691;47.612;7.610;2023-09-19T11:01:59;6.35;;;1.30;;
9306;SDS011;4691;47.612;7.610;2023-09-19T11:04:43;4.13;;;1.50;;
9306;SDS011;4691;47.612;7.610;2023-09-19T11:07:11;4.00;;;1.48;;
9306;SDS011;4691;47.612;7.610;2023-09-19T11:09:50;1.98;;;1.50;;
9306;SDS011;4691;47.612;7.610;2023-09-19T11:14:59;3.35;;;1.58;;
9306;SDS011;4691;47.612;7.610;2023-09-19T11:17:34;1.83;;;1.25;;
9306;SDS011;4691;47.612;7.610;2023-09-19T11:30:31;4.65;;;1.30;;
9306;SDS011;4691;47.612;7.610;2023-09-19T11:36:07;2.70;;;1.40;;
9306;SDS011;4691;47.612;7.610;2023-09-19T11:46:31;2.85;;;1.60;;
9306;SDS011;4691;47.612;7.610;2023-09-19T11:49:05;3.53;;;1.33;;
9306;SDS011;4691;47.612;7.610;2023-09-19T11:54:10;4.40;;;1.42;;
9306;SDS011;4691;47.612;7.610;2023-09-19T11:56:57;2.60;;;1.40;;
9306;SDS011;4691;47.612;7.610;2023-09-19T11:59:31;1.83;;;1.38;;
9306;SDS011;4691;47.612;7.610;2023-09-19T12:02:01;2.95;;;1.52;;
9306;SDS011;4691;47.612;7.610;2023-09-19T12:04:37;3.95;;;1.45;;
9306;SDS011;4691;47.612;7.610;2023-09-19T12:07:10;1.40;;;1.30;;
9306;SDS011;4691;47.612;7.610;2023-09-19T12:09:40;2.25;;;1.20;;
9306;SDS011;4691;47.612;7.610;2023-09-19T12:12:27;2.90;;;1.17;;
9306;SDS011;4691;47.612;7.610;2023-09-19T12:14:53;3.00;;;1.80;;
9306;SDS011;4691;47.612;7.610;2023-09-19T12:17:19;2.35;;;1.30;;
9306;SDS011;4691;47.612;7.610;2023-09-19T12:19:55;2.95;;;1.13;;
9306;SDS011;4691;47.612;7.610;2023-09-19T12:22:21;2.95;;;1.50;;
9306;SDS011;4691;47.612;7.610;2023-09-19T12:24:47;5.68;;;1.65;;
9306;SDS011;4691;47.612;7.610;2023-09-19T12:27:13;4.07;;;1.50;;
9306;SDS011;4691;47.612;7.610;2023-09-19T12:29:45;3.92;;;1.40;;
9306;SDS011;4691;47.612;7.610;2023-09-19T12:32:15;10.13;;;1.63;;
9306;SDS011;4691;47.612;7.610;2023-09-19T12:34:52;3.00;;;1.30;;
9306;SDS011;4691;47.612;7.610;2023-09-19T12:37:19;3.28;;;1.35;;
9306;SDS011;4691;47.612;7.610;2023-09-19T12:39:52;4.28;;;1.40;;
9306;SDS011;4691;47.612;7.610;2023-09-19T12:42:22;2.58;;;1.60;;
9306;SDS011;4691;47.612;7.610;2023-09-19T12:44:49;1.70;;;1.38;;
9306;SDS011;4691;47.612;7.610;2023-09-19T12:47:20;3.58;;;1.40;;
9306;SDS011;4691;47.612;7.610;2023-09-19T12:52:52;7.00;;;2.00;;
9306;SDS011;4691;47.612;7.610;2023-09-19T12:55:28;3.15;;;1.48;;
9306;SDS011;4691;47.612;7.610;2023-09-19T13:00:36;4.40;;;1.83;;
9306;SDS011;4691;47.612;7.610;2023-09-19T13:08:30;2.13;;;1.60;;
9306;SDS011;4691;47.612;7.610;2023-09-19T13:11:07;2.83;;;1.80;;
9306;SDS011;4691;47.612;7.610;2023-09-19T13:13:36;3.35;;;1.58;;
9306;SDS011;4691;47.612;7.610;2023-09-19T13:16:02;5.30;;;1.77;;
9306;SDS011;4691;47.612;7.610;2023-09-19T13:18:41;3.00;;;1.42;;
9306;SDS011;4691;47.612;7.610;2023-09-19T13:21:09;1.90;;;1.20;;
9306;SDS011;4691;47.612;7.610;2023-09-19T13:23:54;4.72;;;1.67;;
9306;SDS011;4691;47.612;7.610;2023-09-19T13:26:27;3.10;;;1.55;;
9306;SDS011;4691;47.612;7.610;2023-09-19T13:28:53;1.45;;;1.15;;
9306;SDS011;4691;47.612;7.610;2023-09-19T13:31:19;3.67;;;1.20;;
9306;SDS011;4691;47.612;7.610;2023-09-19T13:33:46;4.28;;;1.60;;
9306;SDS011;4691;47.612;7.610;2023-09-19T13:36:13;3.88;;;1.50;;
9306;SDS011;4691;47.612;7.610;2023-09-19T13:38:42;2.15;;;1.05;;
9306;SDS011;4691;47.612;7.610;2023-09-19T13:41:13;2.10;;;1.13;;
9306;SDS011;4691;47.612;7.610;2023-09-19T13:43:39;3.67;;;1.55;;
9306;SDS011;4691;47.612;7.610;2023-09-19T13:46:05;2.22;;;1.20;;
9306;SDS011;4691;47.612;7.610;2023-09-19T13:48:32;1.10;;;1.00;;
9306;SDS011;4691;47.612;7.610;2023-09-19T13:51:01;1.30;;;0.97;;
9306;SDS011;4691;47.612;7.610;2023-09-19T13:53:28;1.87;;;1.13;;
9306;SDS011;4691;47.612;7.610;2023-09-19T13:55:53;1.60;;;1.10;;
9306;SDS011;4691;47.612;7.610;2023-09-19T13:58:19;1.53;;;1.00;;
9306;SDS011;4691;47.612;7.610;2023-09-19T14:00:44;2.83;;;1.20;;
9306;SDS011;4691;47.612;7.610;2023-09-19T14:03:09;2.45;;;0.88;;
9306;SDS011;4691;47.612;7.610;2023-09-19T14:05:36;1.63;;;1.10;;
9306;SDS011;4691;47.612;7.610;2023-09-19T14:08:02;3.15;;;1.30;;
9306;SDS011;4691;47.612;7.610;2023-09-19T14:10:28;2.05;;;1.20;;
9306;SDS011;4691;47.612;7.610;2023-09-19T14:12:55;2.17;;;1.33;;
9306;SDS011;4691;47.612;7.610;2023-09-19T14:15:20;2.38;;;1.33;;
9306;SDS011;4691;47.612;7.610;2023-09-19T14:17:54;2.80;;;1.30;;
9306;SDS011;4691;47.612;7.610;2023-09-19T14:20:20;3.55;;;1.35;;
9306;SDS011;4691;47.612;7.610;2023-09-19T14:22:46;2.20;;;1.20;;
9306;SDS011;4691;47.612;7.610;2023-09-19T14:25:12;2.65;;;1.20;;
9306;SDS011;4691;47.612;7.610;2023-09-19T14:27:37;1.60;;;1.00;;
9306;SDS011;4691;47.612;7.610;2023-09-19T14:30:04;2.15;;;1.20;;
9306;SDS011;4691;47.612;7.610;2023-09-19T14:32:30;2.70;;;1.40;;
9306;SDS011;4691;47.612;7.610;2023-09-19T14:34:55;3.50;;;1.10;;
9306;SDS011;4691;47.612;7.610;2023-09-19T14:37:21;2.72;;;1.50;;
9306;SDS011;4691;47.612;7.610;2023-09-19T14:39:46;2.65;;;1.55;;
9306;SDS011;4691;47.612;7.610;2023-09-19T14:42:11;2.80;;;1.30;;
9306;SDS011;4691;47.612;7.610;2023-09-19T14:44:39;2.25;;;1.20;;
9306;SDS011;4691;47.612;7.610;2023-09-19T14:47:05;1.88;;;1.27;;
9306;SDS011;4691;47.612;7.610;2023-09-19T14:49:35;1.65;;;1.15;;
9306;SDS011;4691;47.612;7.610;2023-09-19T14:52:05;2.95;;;1.30;;
9306;SDS011;4691;47.612;7.610;2023-09-19T14:54:32;2.50;;;1.10;;
9306;SDS011;4691;47.612;7.610;2023-09-19T14:56:58;4.28;;;1.40;;
9306;SDS011;4691;47.612;7.610;2023-09-19T14:59:32;3.63;;;1.63;;
9306;SDS011;4691;47.612;7.610;2023-09-19T15:02:02;2.25;;;1.55;;
9306;SDS011;4691;47.612;7.610;2023-09-19T15:04:28;1.52;;;1.23;;
9306;SDS011;4691;47.612;7.610;2023-09-19T15:06:54;2.05;;;1.30;;
9306;SDS011;4691;47.612;7.610;2023-09-19T15:09:20;2.97;;;1.42;;
9306;SDS011;4691;47.612;7.610;2023-09-19T15:11:51;1.63;;;1.17;;
9306;SDS011;4691;47.612;7.610;2023-09-19T15:14:26;1.95;;;1.30;;
9306;SDS011;4691;47.612;7.610;2023-09-19T15:16:51;3.10;;;1.30;;
9306;SDS011;4691;47.612;7.610;2023-09-19T15:19:17;3.35;;;1.30;;
9306;SDS011;4691;47.612;7.610;2023-09-19T15:21:43;3.03;;;1.45;;
9306;SDS011;4691;47.612;7.610;2023-09-19T15:24:08;2.63;;;1.40;;
9306;SDS011;4691;47.612;7.610;2023-09-19T15:26:35;1.73;;;1.38;;
9306;SDS011;4691;47.612;7.610;2023-09-19T15:29:04;4.43;;;1.70;;
9306;SDS011;4691;47.612;7.610;2023-09-19T15:31:30;1.92;;;1.40;;
9306;SDS011;4691;47.612;7.610;2023-09-19T15:33:56;2.58;;;1.38;;
9306;SDS011;4691;47.612;7.610;2023-09-19T15:36:21;2.55;;;1.13;;
9306;SDS011;4691;47.612;7.610;2023-09-19T15:41:19;2.47;;;1.40;;
9306;SDS011;4691;47.612;7.610;2023-09-19T15:43:45;2.13;;;1.40;;
9306;SDS011;4691;47.612;7.610;2023-09-19T15:46:11;2.47;;;1.38;;
9306;SDS011;4691;47.612;7.610;2023-09-19T15:48:36;2.55;;;1.20;;
9306;SDS011;4691;47.612;7.610;2023-09-19T15:51:04;3.50;;;1.40;;
9306;SDS011;4691;47.612;7.610;2023-09-19T15:53:46;8.05;;;1.75;;
9306;SDS011;4691;47.612;7.610;2023-09-19T15:56:13;2.40;;;1.30;;
9306;SDS011;4691;47.612;7.610;2023-09-19T15:58:40;2.40;;;1.48;;
9306;SDS011;4691;47.612;7.610;2023-09-19T16:01:06;1.60;;;1.27;;
9306;SDS011;4691;47.612;7.610;2023-09-19T16:03:38;4.35;;;1.52;;
9306;SDS011;4691;47.612;7.610;2023-09-19T16:06:08;2.63;;;1.38;;
9306;SDS011;4691;47.612;7.610;2023-09-19T16:08:35;7.50;;;1.70;;
9306;SDS011;4691;47.612;7.610;2023-09-19T16:11:03;2.92;;;1.55;;
9306;SDS011;4691;47.612;7.610;2023-09-19T16:13:28;3.17;;;1.20;;
9306;SDS011;4691;47.612;7.610;2023-09-19T16:15:54;2.60;;;1.33;;
9306;SDS011;4691;47.612;7.610;2023-09-19T16:18:19;3.97;;;1.52;;
9306;SDS011;4691;47.612;7.610;2023-09-19T16:20:44;3.03;;;1.30;;
9306;SDS011;4691;47.612;7.610;2023-09-19T16:23:10;1.63;;;1.20;;
9306;SDS011;4691;47.612;7.610;2023-09-19T16:25:36;4.80;;;1.77;;
9306;SDS011;4691;47.612;7.610;2023-09-19T16:28:01;1.67;;;1.20;;
9306;SDS011;4691;47.612;7.610;2023-09-19T16:30:27;3.22;;;1.38;;
9306;SDS011;4691;47.612;7.610;2023-09-19T16:32:53;7.45;;;1.42;;